createdAt,value
2018-05-16T00:01:51.849Z,75.69
2018-05-16T00:04:19.257Z,76.06
2018-05-16T00:06:48.197Z,76.50
2018-05-16T00:09:15.624Z,75.71
2018-05-16T00:11:44.125Z,75.49
2018-05-16T00:14:11.528Z,75.29
2018-05-16T00:16:40.293Z,75.62
2018-05-16T00:19:07.708Z,76.33
2018-05-16T00:21:35.124Z,75.69
2018-05-16T00:24:02.576Z,75.83
2018-05-16T00:26:30.017Z,75.28
2018-05-16T00:28:57.428Z,76.97
2018-05-16T00:31:25.099Z,76.40
2018-05-16T00:33:52.526Z,76.44
2018-05-16T00:36:19.932Z,75.05
2018-05-16T00:38:47.353Z,74.13
2018-05-16T00:41:15.515Z,73.86
2018-05-16T00:43:42.933Z,73.51
2018-05-16T00:46:10.331Z,73.41
2018-05-16T00:48:37.753Z,73.85
2018-05-16T00:51:16.860Z,74.36
2018-05-16T00:53:46.157Z,73.86
2018-05-16T00:56:13.560Z,73.43
2018-05-16T00:58:40.960Z,74.00
2018-05-16T01:01:08.382Z,74.45
2018-05-16T01:03:35.775Z,76.46
2018-05-16T01:06:03.190Z,76.25
2018-05-16T01:08:30.597Z,77.37
2018-05-16T01:10:57.995Z,77.95
2018-05-16T01:13:25.421Z,78.60
2018-05-16T01:15:52.819Z,79.02
2018-05-16T01:18:20.228Z,78.74
2018-05-16T01:20:47.648Z,78.09
2018-05-16T01:23:15.052Z,79.12
2018-05-16T01:25:42.457Z,79.26
2018-05-16T01:28:09.887Z,80.14
2018-05-16T01:30:37.290Z,79.61
2018-05-16T01:33:04.692Z,80.33
2018-05-16T01:35:32.112Z,79.99
2018-05-16T01:37:59.528Z,79.73
2018-05-16T01:40:26.939Z,80.03
2018-05-16T01:42:54.364Z,79.07
2018-05-16T01:45:21.797Z,79.47
2018-05-16T01:47:49.236Z,80.30
2018-05-16T01:50:16.649Z,79.82
2018-05-16T01:52:44.069Z,79.68
2018-05-16T01:55:11.800Z,80.21
2018-05-16T01:57:40.156Z,80.30
2018-05-16T02:00:07.635Z,79.86
2018-05-16T02:02:35.064Z,80.36
2018-05-16T02:05:02.505Z,80.58
2018-05-16T02:07:29.925Z,80.83
2018-05-16T02:09:57.376Z,80.43
2018-05-16T02:12:24.839Z,81.13
2018-05-16T02:14:52.251Z,80.80
2018-05-16T02:17:20.057Z,82.04
2018-05-16T02:19:47.471Z,81.51
2018-05-16T02:22:14.920Z,82.21
2018-05-16T02:24:42.351Z,82.56
2018-05-16T02:27:09.796Z,82.68
2018-05-16T02:29:37.232Z,82.17
2018-05-16T02:32:04.653Z,81.31
2018-05-16T02:34:32.541Z,81.05
2018-05-16T02:36:59.952Z,82.26
2018-05-16T02:39:27.372Z,82.08
2018-05-16T02:41:54.795Z,81.52
2018-05-16T02:44:22.240Z,81.38
2018-05-16T02:46:49.929Z,81.20
2018-05-16T02:49:17.355Z,80.86
2018-05-16T02:51:44.759Z,80.93
2018-05-16T02:54:12.719Z,82.17
2018-05-16T02:56:40.149Z,81.97
2018-05-16T02:59:07.624Z,82.39
2018-05-16T03:01:35.028Z,81.87
2018-05-16T03:04:02.456Z,81.62
2018-05-16T03:06:29.884Z,81.43
2018-05-16T03:08:57.858Z,81.23
2018-05-16T03:11:25.313Z,80.85
2018-05-16T03:13:52.721Z,80.91
2018-05-16T03:16:20.181Z,81.15
2018-05-16T03:18:47.596Z,81.52
2018-05-16T03:21:15.490Z,81.32
2018-05-16T03:23:42.896Z,81.56
2018-05-16T03:26:10.325Z,82.55
2018-05-16T03:28:37.731Z,82.80
2018-05-16T03:31:05.337Z,82.45
2018-05-16T03:33:32.739Z,83.45
2018-05-16T03:36:00.205Z,82.72
2018-05-16T03:38:27.629Z,82.44
2018-05-16T03:40:55.054Z,83.33
2018-05-16T03:43:22.460Z,83.37
2018-05-16T03:45:49.915Z,82.96
2018-05-16T03:48:17.323Z,82.95
2018-05-16T03:50:45.681Z,82.54
2018-05-16T03:53:13.137Z,82.40
2018-05-16T03:55:40.552Z,81.95
2018-05-16T03:58:20.809Z,82.25
2018-05-16T04:04:13.076Z,82.36
2018-05-16T04:06:40.523Z,81.60
2018-05-16T04:09:07.978Z,82.14
2018-05-16T04:11:35.397Z,82.26
2018-05-16T04:14:02.826Z,82.68
2018-05-16T04:16:30.235Z,82.61
2018-05-16T04:18:57.980Z,82.14
2018-05-16T04:21:25.424Z,81.32
2018-05-16T04:23:52.839Z,80.97
2018-05-16T04:26:20.261Z,80.65
2018-05-16T04:28:47.697Z,80.50
2018-05-16T04:31:15.149Z,80.02
2018-05-16T04:33:42.572Z,79.83
2018-05-16T04:36:10.028Z,79.26
2018-05-16T04:38:37.456Z,78.96
2018-05-16T04:41:04.887Z,78.62
2018-05-16T04:43:32.335Z,77.93
2018-05-16T04:45:59.749Z,77.36
2018-05-16T04:48:27.184Z,76.72
2018-05-16T04:50:54.596Z,76.00
2018-05-16T04:53:22.032Z,74.58
2018-05-16T04:55:49.463Z,71.50
2018-05-16T04:58:16.880Z,69.82
2018-05-16T05:00:44.312Z,67.84
2018-05-16T05:03:11.730Z,66.96
2018-05-16T05:05:39.148Z,62.89
2018-05-16T05:08:06.578Z,61.82
2018-05-16T05:10:33.983Z,57.86
2018-05-16T05:13:01.416Z,60.04
2018-05-16T05:15:28.839Z,57.93
2018-05-16T05:17:56.301Z,57.30
2018-05-16T05:20:24.721Z,57.13
2018-05-16T05:22:52.134Z,55.02
2018-05-16T05:25:19.532Z,54.45
2018-05-16T05:27:46.952Z,50.71
2018-05-16T05:30:14.428Z,54.33
2018-05-16T05:32:41.779Z,54.37
2018-05-16T05:35:09.208Z,54.42
2018-05-16T05:37:36.623Z,55.35
2018-05-16T05:40:04.684Z,55.53
2018-05-16T05:42:32.165Z,56.04
2018-05-16T05:44:59.584Z,55.70
2018-05-16T05:47:27.024Z,57.62
2018-05-16T05:49:54.440Z,58.23
2018-05-16T05:52:21.843Z,59.07
2018-05-16T05:54:49.264Z,59.53
2018-05-16T05:57:16.675Z,59.29
2018-05-16T05:59:44.110Z,58.76
2018-05-16T06:02:11.519Z,57.93
2018-05-16T06:04:39.718Z,57.53
2018-05-16T06:07:07.297Z,56.16
2018-05-16T06:09:34.744Z,55.21
2018-05-16T06:12:02.422Z,56.08
2018-05-16T06:14:29.992Z,58.50
2018-05-16T06:16:57.552Z,58.86
2018-05-16T06:19:25.321Z,60.02
2018-05-16T06:21:52.778Z,59.78
2018-05-16T06:24:21.143Z,60.64
2018-05-16T06:26:49.849Z,61.20
2018-05-16T06:29:18.691Z,62.46
2018-05-16T06:31:47.206Z,63.73
2018-05-16T06:34:14.746Z,63.45
2018-05-16T06:36:42.218Z,64.62
2018-05-16T06:39:10.291Z,64.35
2018-05-16T06:41:37.672Z,64.38
2018-05-16T06:44:05.108Z,64.38
2018-05-16T06:46:34.909Z,64.65
2018-05-16T06:49:04.355Z,66.24
2018-05-16T06:51:33.285Z,65.07
2018-05-16T06:54:00.988Z,64.52
2018-05-16T06:56:32.451Z,63.59
2018-05-16T06:58:59.887Z,63.52
2018-05-16T07:01:27.828Z,61.92
2018-05-16T07:03:55.254Z,63.58
2018-05-16T07:06:22.714Z,64.31
2018-05-16T07:08:50.299Z,63.76
2018-05-16T07:11:17.704Z,63.73
2018-05-16T07:13:45.599Z,64.04
2018-05-16T07:16:13.184Z,65.65
2018-05-16T07:18:44.003Z,66.25
2018-05-16T07:21:11.459Z,66.62
2018-05-16T07:23:39.191Z,66.57
2018-05-16T07:26:07.330Z,67.08
2018-05-16T07:28:35.243Z,66.68
2018-05-16T07:31:04.736Z,66.18
2018-05-16T07:33:32.153Z,65.86
2018-05-16T07:36:09.702Z,65.36
2018-05-16T07:38:37.156Z,65.84
2018-05-16T07:41:04.696Z,66.50
2018-05-16T07:43:32.057Z,66.32
2018-05-16T07:45:59.472Z,65.79
2018-05-16T07:48:26.907Z,67.08
2018-05-16T07:50:54.324Z,67.14
2018-05-16T07:53:21.733Z,67.70
2018-05-16T07:55:49.153Z,67.84
2018-05-16T07:58:16.559Z,69.54
2018-05-16T08:00:43.987Z,67.74
2018-05-16T08:03:11.492Z,67.81
2018-05-16T08:05:38.818Z,67.46
2018-05-16T08:08:06.287Z,66.26
2018-05-16T08:10:33.777Z,65.69
2018-05-16T08:13:02.162Z,65.13
2018-05-16T08:15:29.572Z,63.37
2018-05-16T08:17:56.983Z,63.46
2018-05-16T08:20:24.416Z,61.41
2018-05-16T08:22:51.824Z,60.78
2018-05-16T08:25:19.244Z,59.64
2018-05-16T08:27:46.658Z,59.55
2018-05-16T08:30:14.095Z,56.93
2018-05-16T08:32:41.524Z,56.14
2018-05-16T08:35:08.932Z,57.22
2018-05-16T08:37:36.365Z,58.10
2018-05-16T08:40:04.385Z,57.90
2018-05-16T08:42:31.803Z,55.64
2018-05-16T08:44:59.224Z,56.25
2018-05-16T08:47:26.626Z,56.63
2018-05-16T08:49:54.066Z,56.25
2018-05-16T08:52:21.504Z,57.05
2018-05-16T08:54:48.944Z,56.16
2018-05-16T08:57:16.368Z,56.94
2018-05-16T08:59:43.775Z,55.94
2018-05-16T09:02:11.196Z,56.90
2018-05-16T09:04:38.618Z,55.79
2018-05-16T09:07:06.060Z,56.14
2018-05-16T09:09:33.474Z,57.05
2018-05-16T09:12:00.940Z,57.29
2018-05-16T09:14:28.348Z,57.29
2018-05-16T09:16:55.757Z,57.57
2018-05-16T09:19:23.180Z,57.90
2018-05-16T09:21:50.608Z,58.33
2018-05-16T09:24:18.078Z,58.39
2018-05-16T09:26:45.483Z,58.29
2018-05-16T09:29:12.892Z,58.03
2018-05-16T09:31:40.659Z,57.60
2018-05-16T09:34:08.072Z,57.45
2018-05-16T09:36:35.500Z,56.69
2018-05-16T09:39:02.932Z,56.79
2018-05-16T09:41:30.333Z,56.03
2018-05-16T09:43:57.765Z,56.20
2018-05-16T09:46:25.170Z,55.66
2018-05-16T09:48:52.889Z,54.11
2018-05-16T09:51:20.320Z,53.73
2018-05-16T09:53:47.731Z,54.91
2018-05-16T09:56:15.165Z,55.54
2018-05-16T09:58:42.603Z,55.81
2018-05-16T10:01:10.013Z,55.57
2018-05-16T10:03:37.447Z,56.08
2018-05-16T10:06:04.887Z,56.08
2018-05-16T10:08:32.316Z,56.22
2018-05-16T10:10:59.755Z,57.40
2018-05-16T10:13:27.167Z,57.15
2018-05-16T10:15:55.532Z,59.28
2018-05-16T10:18:23.016Z,59.96
2018-05-16T10:20:50.469Z,59.73
2018-05-16T10:23:17.896Z,60.16
2018-05-16T10:25:46.039Z,58.41
2018-05-16T10:28:13.448Z,58.60
2018-05-16T10:30:40.887Z,59.79
2018-05-16T10:33:08.370Z,61.16
2018-05-16T10:35:35.799Z,62.15
2018-05-16T10:38:03.250Z,61.85
2018-05-16T10:40:30.968Z,61.23
2018-05-16T10:42:58.425Z,61.98
2018-05-16T10:45:25.839Z,61.75
2018-05-16T10:47:53.271Z,61.29
2018-05-16T10:50:20.688Z,62.36
2018-05-16T10:52:48.136Z,62.96
2018-05-16T10:55:17.114Z,62.42
2018-05-16T10:57:44.532Z,62.61
2018-05-16T11:00:15.033Z,64.63
2018-05-16T11:02:42.517Z,64.15
2018-05-16T11:05:10.420Z,65.11
2018-05-16T11:07:38.206Z,66.16
2018-05-16T11:10:07.648Z,67.04
2018-05-16T11:12:37.383Z,65.30
2018-05-16T11:15:04.835Z,67.11
2018-05-16T11:17:33.269Z,67.36
2018-05-16T11:20:02.881Z,66.96
2018-05-16T11:22:31.025Z,67.78
2018-05-16T11:24:58.660Z,66.80
2018-05-16T11:27:27.360Z,66.35
2018-05-16T11:29:55.253Z,65.93
2018-05-16T11:32:23.663Z,66.36
2018-05-16T11:34:51.364Z,66.48
2018-05-16T11:37:20.267Z,66.40
2018-05-16T11:39:47.758Z,65.83
2018-05-16T11:42:15.185Z,65.12
2018-05-16T11:44:42.676Z,65.13
2018-05-16T11:47:11.280Z,65.16
2018-05-16T11:49:39.290Z,64.79
2018-05-16T11:52:06.699Z,65.88
2018-05-16T11:54:34.435Z,64.11
2018-05-16T11:57:01.852Z,63.46
2018-05-16T11:59:29.280Z,62.96
2018-05-16T12:01:56.708Z,62.30
2018-05-16T12:04:24.148Z,61.73
2018-05-16T12:06:52.537Z,60.43
2018-05-16T12:09:19.969Z,60.32
2018-05-16T12:11:47.382Z,61.19
2018-05-16T12:14:15.102Z,60.29
2018-05-16T12:16:42.610Z,61.39
2018-05-16T12:19:10.991Z,61.70
2018-05-16T12:21:38.429Z,63.18
2018-05-16T12:24:05.780Z,62.30
2018-05-16T12:26:33.242Z,62.05
2018-05-16T12:29:00.681Z,62.05
2018-05-16T12:31:28.092Z,62.53
2018-05-16T12:33:55.889Z,62.86
2018-05-16T12:36:23.301Z,62.90
2018-05-16T12:38:50.732Z,63.53
2018-05-16T12:41:18.184Z,62.59
2018-05-16T12:43:45.616Z,62.40
2018-05-16T12:46:13.042Z,62.85
2018-05-16T12:48:40.472Z,62.51
2018-05-16T12:51:07.879Z,62.64
2018-05-16T12:53:35.337Z,61.59
2018-05-16T12:56:08.351Z,61.03
2018-05-16T12:58:37.504Z,58.53
2018-05-16T13:01:04.970Z,58.27
2018-05-16T13:03:32.820Z,57.41
2018-05-16T13:06:03.381Z,58.03
2018-05-16T13:08:33.928Z,55.94
2018-05-16T13:11:01.421Z,56.21
2018-05-16T13:13:31.949Z,55.86
2018-05-16T13:16:00.500Z,55.94
2018-05-16T13:18:28.337Z,56.60
2018-05-16T13:20:58.052Z,57.00
2018-05-16T13:23:25.489Z,56.39
2018-05-16T13:25:52.905Z,56.06
2018-05-16T13:28:20.319Z,55.67
2018-05-16T13:30:47.743Z,55.78
2018-05-16T13:33:15.148Z,55.48
2018-05-16T13:35:42.729Z,55.88
2018-05-16T13:38:10.140Z,54.86
2018-05-16T13:40:37.569Z,54.84
2018-05-16T13:43:04.988Z,55.48
2018-05-16T13:45:32.402Z,56.61
2018-05-16T13:47:59.823Z,55.23
2018-05-16T13:50:27.608Z,55.66
2018-05-16T13:52:55.028Z,55.61
2018-05-16T13:55:22.437Z,53.96
2018-05-16T13:57:49.879Z,55.15
2018-05-16T14:00:17.300Z,54.41
2018-05-16T14:02:44.733Z,53.98
2018-05-16T14:05:12.170Z,54.46
2018-05-16T14:07:39.627Z,54.17
2018-05-16T14:10:07.064Z,53.59
2018-05-16T14:12:34.482Z,53.04
2018-05-16T14:15:01.898Z,53.33
2018-05-16T14:17:29.319Z,52.53
2018-05-16T14:19:56.837Z,52.83
2018-05-16T14:22:24.148Z,53.03
2018-05-16T14:24:51.880Z,53.00
2018-05-16T14:27:19.295Z,53.17
2018-05-16T14:29:46.705Z,53.48
2018-05-16T14:32:14.132Z,53.28
2018-05-16T14:34:41.545Z,53.20
2018-05-16T14:37:08.979Z,53.70
2018-05-16T14:39:36.400Z,54.44
2018-05-16T14:42:03.836Z,55.06
2018-05-16T14:44:31.252Z,55.77
2018-05-16T14:46:58.695Z,56.22
2018-05-16T14:49:26.133Z,56.53
2018-05-16T14:51:53.573Z,56.60
2018-05-16T14:54:20.971Z,57.44
2018-05-16T14:56:48.409Z,56.93
2018-05-16T14:59:15.816Z,57.50
2018-05-16T15:01:43.274Z,58.26
2018-05-16T15:04:10.689Z,59.27
2018-05-16T15:06:38.124Z,60.48
2018-05-16T15:09:05.528Z,60.53
2018-05-16T15:11:32.944Z,61.04
2018-05-16T15:14:00.519Z,61.68
2018-05-16T15:16:27.936Z,60.96
2018-05-16T15:18:55.430Z,61.62
2018-05-16T15:21:23.166Z,61.54
2018-05-16T15:23:50.550Z,61.36
2018-05-16T15:26:17.955Z,61.50
2018-05-16T15:28:45.380Z,62.45
2018-05-16T15:31:12.875Z,61.64
2018-05-16T15:33:40.528Z,62.60
2018-05-16T15:36:07.949Z,62.35
2018-05-16T15:38:35.379Z,63.62
2018-05-16T15:41:02.807Z,63.58
2018-05-16T15:43:30.225Z,63.84
2018-05-16T15:45:57.795Z,64.43
2018-05-16T15:48:25.785Z,66.21
2018-05-16T15:50:53.203Z,67.12
2018-05-16T15:53:20.623Z,68.36
2018-05-16T15:55:48.724Z,67.79
2018-05-16T15:58:16.153Z,68.58
2018-05-16T16:00:43.568Z,68.60
2018-05-16T16:03:10.976Z,70.24
2018-05-16T16:05:38.404Z,66.50
2018-05-16T16:08:06.710Z,67.93
2018-05-16T16:10:34.035Z,69.09
2018-05-16T16:13:01.451Z,71.41
2018-05-16T16:15:28.877Z,72.24
2018-05-16T16:17:56.321Z,71.79
2018-05-16T16:20:23.733Z,70.82
2018-05-16T16:22:51.296Z,72.50
2018-05-16T16:25:18.699Z,72.46
2018-05-16T16:27:46.117Z,72.84
2018-05-16T16:30:13.540Z,72.85
2018-05-16T16:32:40.948Z,72.83
2018-05-16T16:35:08.380Z,74.16
2018-05-16T16:37:37.262Z,74.76
2018-05-16T16:40:04.735Z,72.73
2018-05-16T16:42:32.268Z,72.36
2018-05-16T16:44:59.699Z,73.36
2018-05-16T16:47:27.095Z,74.02
2018-05-16T16:49:54.922Z,74.98
2018-05-16T16:52:22.541Z,74.49
2018-05-16T16:54:50.072Z,74.90
2018-05-16T16:57:17.919Z,74.52
2018-05-16T16:59:45.289Z,74.88
2018-05-16T17:02:12.961Z,76.03
2018-05-16T17:04:40.413Z,75.83
2018-05-16T17:07:07.827Z,75.41
2018-05-16T17:09:35.449Z,76.00
2018-05-16T17:12:02.955Z,76.72
2018-05-16T17:14:30.376Z,76.49
2018-05-16T17:16:57.957Z,77.62
2018-05-16T17:19:25.355Z,77.91
2018-05-16T17:21:52.770Z,77.33
2018-05-16T17:24:20.185Z,76.95
2018-05-16T17:26:47.682Z,78.59
2018-05-16T17:29:15.016Z,79.43
2018-05-16T17:31:42.523Z,80.17
2018-05-16T17:34:10.444Z,80.44
2018-05-16T17:36:37.863Z,80.85
2018-05-16T17:39:05.689Z,79.98
2018-05-16T17:41:33.116Z,80.84
2018-05-16T17:44:00.648Z,81.60
2018-05-16T17:46:28.136Z,82.12
2018-05-16T17:48:55.663Z,83.88
2018-05-16T17:51:23.606Z,83.21
2018-05-16T17:53:51.176Z,83.76
2018-05-16T17:56:18.427Z,83.79
2018-05-16T17:58:45.935Z,83.89
2018-05-16T18:01:13.403Z,83.26
2018-05-16T18:03:41.144Z,82.99
2018-05-16T18:06:08.700Z,82.82
2018-05-16T18:08:36.119Z,83.04
2018-05-16T18:11:03.532Z,84.08
2018-05-16T18:16:46.364Z,83.83
2018-05-16T18:19:14.096Z,83.56
2018-05-16T18:21:41.514Z,83.71
2018-05-16T18:24:08.926Z,85.09
2018-05-16T18:26:36.357Z,83.67
2018-05-16T18:29:03.768Z,83.44
2018-05-16T18:31:31.196Z,79.65
2018-05-16T18:33:58.632Z,79.62
2018-05-16T18:36:26.016Z,80.63
2018-05-16T18:38:53.441Z,80.01
2018-05-16T18:41:20.847Z,81.34
2018-05-16T18:43:48.296Z,82.17
2018-05-16T18:46:15.712Z,82.01
2018-05-16T18:48:43.228Z,83.15
2018-05-16T18:51:10.845Z,84.15
2018-05-16T18:53:38.294Z,84.82
2018-05-16T18:56:05.745Z,84.87
2018-05-16T18:58:33.173Z,85.85
2018-05-16T19:01:00.639Z,85.96
2018-05-16T19:03:28.199Z,86.58
2018-05-16T19:05:55.615Z,86.35
2018-05-16T19:08:23.031Z,85.67
2018-05-16T19:10:50.473Z,84.55
2018-05-16T19:13:18.000Z,84.84
2018-05-16T19:15:45.460Z,83.25
2018-05-16T19:18:12.876Z,82.70
2018-05-16T19:20:40.320Z,80.88
2018-05-16T19:23:07.805Z,79.83
2018-05-16T19:25:35.624Z,79.37
2018-05-16T19:28:03.072Z,80.42
2018-05-16T19:30:30.522Z,79.05
2018-05-16T19:32:58.053Z,78.86
2018-05-16T19:35:28.044Z,79.35
2018-05-16T19:37:56.187Z,78.83
2018-05-16T19:40:24.671Z,78.63
2018-05-16T19:42:53.471Z,79.11
2018-05-16T19:45:21.014Z,79.38
2018-05-16T19:47:48.425Z,79.22
2018-05-16T19:50:15.970Z,78.87
2018-05-16T19:52:44.557Z,78.62
2018-05-16T19:55:13.104Z,78.75
2018-05-16T19:57:41.360Z,77.32
2018-05-16T20:00:08.861Z,77.39
2018-05-16T20:02:37.379Z,77.73
2018-05-16T20:05:06.557Z,76.70
2018-05-16T20:07:35.688Z,76.24
2018-05-16T20:10:03.691Z,77.06
2018-05-16T20:12:31.715Z,75.92
2018-05-16T20:14:59.483Z,76.79
2018-05-16T20:17:26.891Z,76.03
2018-05-16T20:19:54.344Z,76.57
2018-05-16T20:22:21.949Z,76.20
2018-05-16T20:24:49.369Z,76.38
2018-05-16T20:27:16.786Z,76.23
2018-05-16T20:29:44.572Z,76.89
2018-05-16T20:32:12.006Z,76.94
2018-05-16T20:34:39.430Z,76.87
2018-05-16T20:37:06.852Z,77.08
2018-05-16T20:39:34.274Z,77.36
2018-05-16T20:42:01.680Z,77.76
2018-05-16T20:44:29.107Z,77.67
2018-05-16T20:46:57.175Z,77.71
2018-05-16T20:49:24.756Z,77.54
2018-05-16T20:51:52.188Z,77.31
2018-05-16T20:54:19.624Z,77.21
2018-05-16T20:56:47.076Z,77.88
2018-05-16T20:59:14.661Z,78.18
2018-05-16T21:01:42.080Z,78.33
2018-05-16T21:04:09.505Z,78.48
2018-05-16T21:06:36.927Z,78.29
2018-05-16T21:09:05.069Z,78.24
2018-05-16T21:11:32.472Z,78.07
2018-05-16T21:13:59.923Z,77.20
2018-05-16T21:16:27.355Z,77.61
2018-05-16T21:18:54.795Z,77.14
2018-05-16T21:21:22.215Z,76.27
2018-05-16T21:23:50.015Z,76.63
2018-05-16T21:26:17.411Z,76.43
2018-05-16T21:28:44.849Z,76.38
2018-05-16T21:31:12.283Z,76.56
2018-05-16T21:33:39.683Z,76.42
2018-05-16T21:36:07.103Z,76.37
2018-05-16T21:38:34.692Z,76.00
2018-05-16T21:41:02.340Z,76.82
2018-05-16T21:43:29.756Z,76.43
2018-05-16T21:45:57.177Z,76.45
2018-05-16T21:48:24.598Z,76.74
2018-05-16T21:50:52.358Z,76.68
2018-05-16T21:53:19.755Z,77.08
2018-05-16T21:55:47.185Z,76.90
2018-05-16T21:58:14.985Z,77.22
2018-05-16T22:00:42.410Z,77.27
2018-05-16T22:03:09.824Z,77.53
2018-05-16T22:05:37.591Z,78.14
2018-05-16T22:08:05.005Z,78.00
2018-05-16T22:10:32.414Z,77.35
2018-05-16T22:12:59.847Z,77.95
2018-05-16T22:15:27.255Z,77.80
2018-05-16T22:17:54.666Z,77.81
2018-05-16T22:20:22.099Z,78.10
2018-05-16T22:22:49.529Z,77.72
2018-05-16T22:25:16.919Z,77.86
2018-05-16T22:27:44.336Z,77.39
2018-05-16T22:30:11.179Z,77.32
2018-05-16T22:32:44.260Z,77.61
2018-05-16T22:35:17.322Z,76.73
2018-05-16T22:37:50.453Z,77.11
2018-05-16T22:40:23.517Z,76.76
2018-05-16T22:42:50.382Z,76.85
2018-05-16T22:45:19.691Z,76.49
2018-05-16T22:47:47.282Z,76.44
2018-05-16T22:50:14.685Z,76.52
2018-05-16T22:52:42.104Z,76.47
2018-05-16T22:55:09.673Z,76.65
2018-05-16T22:57:37.081Z,76.34
2018-05-16T23:00:04.495Z,76.49
2018-05-16T23:02:31.924Z,76.27
2018-05-16T23:04:59.327Z,76.84
2018-05-16T23:07:26.740Z,76.69
2018-05-16T23:09:54.328Z,76.83
2018-05-16T23:12:21.728Z,76.79
2018-05-16T23:14:49.140Z,77.03
2018-05-16T23:17:16.568Z,77.25
2018-05-16T23:19:43.985Z,77.15
2018-05-16T23:22:14.287Z,77.34
2018-05-16T23:24:41.709Z,77.88
2018-05-16T23:27:09.124Z,77.54
2018-05-16T23:29:36.548Z,78.58
2018-05-16T23:32:03.977Z,78.47
2018-05-16T23:34:31.381Z,78.40
2018-05-16T23:36:58.808Z,78.62
2018-05-16T23:39:26.256Z,78.76
2018-05-16T23:41:53.664Z,79.03
2018-05-16T23:44:21.092Z,78.56
2018-05-16T23:46:48.497Z,78.71
2018-05-16T23:49:15.900Z,78.16
2018-05-16T23:51:43.340Z,78.17
2018-05-16T23:54:10.760Z,77.73
2018-05-16T23:56:38.179Z,77.57
2018-05-16T23:59:05.596Z,77.45
